Time;durP1;ratioP1;P1;durP2;ratioP2;P2;SDS_P1;SDS_P2;PMS_P1;PMS_P2;Temp;Humidity;BMP_temperature;BMP_pressure;BME280_temperature;BME280_humidity;BME280_pressure;Samples;Min_cycle;Max_cycle;Signal;HPM_P1;HPM_P2
2021/12/05 00:23:25;;;;;;;;;;;;;;;4.50;78.10;99298.03;4968302;28;19919;-79
2021/12/05 00:25:53;;;;;;;;;;;;;;;4.44;78.41;99302.88;4951775;28;20238;-78
2021/12/05 00:31:12;;;;;;;;;;;;;;;4.30;78.93;99305.81;4974940;28;20466;-76
2021/12/05 01:07:12;;;;;;;;;;;;;;;4.17;83.38;99331.41;4968634;28;20607;-76
2021/12/05 01:12:40;;;;;;;;;;;;;;;4.08;83.21;99323.38;4991141;28;20422;-77
2021/12/05 01:15:10;;;;;;;;;;;;;;;4.02;83.94;99331.75;4988187;28;20211;-78
2021/12/05 01:18:02;;;;;;;;;;;;;;;3.95;84.17;99330.63;4987169;28;19945;-76
2021/12/05 01:20:22;;;;;;;;;;;;;;;3.86;84.25;99326.97;4989476;28;19919;-77
2021/12/05 01:22:58;;;;;;;;;;;;;;;3.86;84.29;99331.38;4984950;28;20223;-77
2021/12/05 01:30:35;;;;;;;;;;;;;;;3.62;85.10;99340.31;4985790;28;20141;-77
2021/12/05 01:38:45;;;;;;;;;;;;;;;3.58;84.66;99341.53;4991465;28;19911;-77
2021/12/05 01:54:47;;;;;;;;;;;;;;;3.67;85.12;99351.22;4992049;28;20224;-76
2021/12/05 02:29:17;;;;;;;;;;;;;;;3.87;83.92;99346.13;4985316;28;19915;-78
2021/12/05 02:40:45;;;;;;;;;;;;;;;4.07;82.40;99353.13;4981804;28;20043;-77
2021/12/05 02:43:13;;;;;;;;;;;;;;;4.15;82.80;99343.81;4967817;28;20036;-77
2021/12/05 02:45:40;;;;;;;;;;;;;;;4.18;82.80;99349.59;4983175;28;20210;-76
2021/12/05 02:48:06;;;;;;;;;;;;;;;4.11;81.60;99349.28;4965382;28;20282;-78
2021/12/05 02:50:31;;;;;;;;;;;;;;;4.16;81.67;99351.53;4966794;28;19964;-78
2021/12/05 02:53:02;;;;;;;;;;;;;;;4.20;82.26;99345.09;4965685;28;19964;-78
2021/12/05 02:55:35;;;;;;;;;;;;;;;4.26;81.77;99341.94;4983059;28;20317;-76
2021/12/05 02:58:13;;;;;;;;;;;;;;;4.26;81.04;99346.34;4985463;28;20186;-77
2021/12/05 03:00:43;;;;;;;;;;;;;;;4.22;79.63;99334.47;4987472;28;20764;-80
2021/12/05 03:03:19;;;;;;;;;;;;;;;4.23;79.17;99336.13;4991368;27;20254;-78
2021/12/05 03:05:46;;;;;;;;;;;;;;;4.23;80.14;99338.72;5025228;27;20406;-75
2021/12/05 03:08:11;;;;;;;;;;;;;;;4.29;79.50;99341.66;5001513;28;20247;-76
2021/12/05 03:10:36;;;;;;;;;;;;;;;4.27;79.13;99333.13;4984379;28;19920;-76
2021/12/05 03:13:02;;;;;;;;;;;;;;;4.28;78.71;99334.75;4985522;28;20737;-77
2021/12/05 03:15:27;;;;;;;;;;;;;;;4.35;78.51;99329.84;4983612;27;20762;-78
2021/12/05 03:17:53;;;;;;;;;;;;;;;4.35;78.33;99329.84;4984089;28;20270;-76
2021/12/05 03:20:18;;;;;;;;;;;;;;;4.27;78.33;99316.56;4983426;27;20568;-77
2021/12/05 03:22:43;;;;;;;;;;;;;;;4.33;78.02;99321.28;5002715;28;20329;-76
2021/12/05 03:25:09;;;;;;;;;;;;;;;4.26;78.27;99315.75;5005284;27;20008;-76
2021/12/05 03:27:34;;;;;;;;;;;;;;;4.30;78.22;99321.53;5005962;28;20016;-76
2021/12/05 03:30:00;;;;;;;;;;;;;;;4.32;77.09;99314.41;5005767;28;20009;-76
2021/12/05 03:32:25;;;;;;;;;;;;;;;4.35;76.96;99316.75;4988725;28;19951;-77
2021/12/05 03:34:50;;;;;;;;;;;;;;;4.27;77.20;99316.56;5006877;28;20092;-77
2021/12/05 03:37:16;;;;;;;;;;;;;;;4.12;76.76;99313.50;5004382;27;20149;-78
2021/12/05 03:39:41;;;;;;;;;;;;;;;4.11;77.64;99315.25;5009605;27;20008;-78
2021/12/05 03:42:06;;;;;;;;;;;;;;;4.10;76.76;99315.38;5008778;27;20016;-77
2021/12/05 03:44:36;;;;;;;;;;;;;;;3.96;77.76;99313.94;5015810;27;19942;-78
2021/12/05 03:47:02;;;;;;;;;;;;;;;3.95;78.79;99322.78;4974982;28;20235;-76
2021/12/05 03:49:28;;;;;;;;;;;;;;;3.95;78.75;99328.00;4965690;28;20150;-78
2021/12/05 03:51:55;;;;;;;;;;;;;;;3.89;78.68;99329.34;5001638;28;20062;-78
2021/12/05 03:54:20;;;;;;;;;;;;;;;3.87;78.94;99333.88;4992625;28;20551;-78
2021/12/05 03:56:46;;;;;;;;;;;;;;;3.90;79.27;99330.16;4973400;28;20267;-78
2021/12/05 03:59:11;;;;;;;;;;;;;;;3.84;79.81;99325.47;4985047;28;20110;-77
2021/12/05 04:01:36;;;;;;;;;;;;;;;3.83;79.64;99323.78;5001799;27;19988;-78
2021/12/05 04:04:02;;;;;;;;;;;;;;;3.78;80.61;99322.38;5007105;27;20032;-79
2021/12/05 04:06:27;;;;;;;;;;;;;;;3.72;80.64;99319.44;5004299;27;20430;-75
2021/12/05 04:08:52;;;;;;;;;;;;;;;3.68;81.31;99324.13;4990611;27;19908;-78
2021/12/05 04:11:27;;;;;;;;;;;;;;;3.76;81.26;99316.44;5004918;27;19920;-78
2021/12/05 04:13:53;;;;;;;;;;;;;;;3.69;81.47;99322.31;4991839;27;20343;-78
2021/12/05 04:16:18;;;;;;;;;;;;;;;3.72;81.06;99319.44;5007017;27;20150;-78
2021/12/05 04:18:45;;;;;;;;;;;;;;;3.72;81.03;99320.31;5007573;27;20069;-78
2021/12/05 04:21:10;;;;;;;;;;;;;;;3.74;80.73;99320.16;4991370;27;19947;-79
2021/12/05 04:23:36;;;;;;;;;;;;;;;3.69;79.99;99312.69;5002964;27;20454;-79
2021/12/05 04:26:01;;;;;;;;;;;;;;;3.59;80.49;99309.19;5006426;27;19914;-80
2021/12/05 04:28:26;;;;;;;;;;;;;;;3.55;80.23;99305.16;5005637;27;20113;-78
2021/12/05 04:30:52;;;;;;;;;;;;;;;3.58;80.02;99310.13;5003455;27;20758;-78
2021/12/05 04:33:17;;;;;;;;;;;;;;;3.47;80.00;99307.56;5005773;27;19915;-76
2021/12/05 04:35:42;;;;;;;;;;;;;;;3.39;80.57;99308.22;5002015;27;20400;-78
2021/12/05 04:38:08;;;;;;;;;;;;;;;3.42;79.84;99306.16;5003699;27;20066;-75
2021/12/05 04:40:33;;;;;;;;;;;;;;;3.29;80.07;99300.31;4983665;28;19916;-78
2021/12/05 04:42:59;;;;;;;;;;;;;;;3.27;79.91;99304.81;4988203;28;19960;-77
2021/12/05 04:45:26;;;;;;;;;;;;;;;3.26;79.93;99301.38;4988776;27;20167;-76
2021/12/05 04:47:51;;;;;;;;;;;;;;;3.18;80.06;99300.34;5008441;27;20244;-76
2021/12/05 04:50:17;;;;;;;;;;;;;;;3.18;80.10;99308.19;5009908;27;19911;-76
2021/12/05 04:52:42;;;;;;;;;;;;;;;3.14;79.55;99307.59;5008472;27;20012;-76
2021/12/05 04:55:07;;;;;;;;;;;;;;;3.07;79.80;99306.44;4992151;27;20108;-77
2021/12/05 04:57:32;;;;;;;;;;;;;;;3.04;80.08;99302.28;4991816;27;20335;-77
2021/12/05 04:59:58;;;;;;;;;;;;;;;2.94;80.30;99301.38;5004564;27;20489;-76
2021/12/05 05:02:23;;;;;;;;;;;;;;;2.97;80.32;99305.53;4968506;28;20196;-77
2021/12/05 05:04:49;;;;;;;;;;;;;;;2.93;80.18;99302.31;4967343;28;20380;-77
2021/12/05 05:07:25;;;;;;;;;;;;;;;2.89;80.47;99306.97;4967704;28;20183;-78
2021/12/05 05:09:51;;;;;;;;;;;;;;;2.86;80.62;99314.22;4985593;28;20248;-78
2021/12/05 05:12:16;;;;;;;;;;;;;;;2.83;80.69;99310.06;4986006;28;20144;-77
2021/12/05 05:14:41;;;;;;;;;;;;;;;2.74;80.66;99301.19;4991638;28;19904;-77
2021/12/05 05:17:07;;;;;;;;;;;;;;;2.67;80.63;99305.25;4991514;27;20357;-77
2021/12/05 05:19:38;;;;;;;;;;;;;;;2.63;81.22;99306.44;5008033;27;20386;-78
2021/12/05 05:46:23;;;;;;;;;;;;;;;2.22;81.66;99320.97;5004358;27;20221;-76
2021/12/05 05:48:59;;;;;;;;;;;;;;;2.14;82.01;99326.75;5005856;27;20284;-78
2021/12/05 05:51:25;;;;;;;;;;;;;;;2.11;81.92;99328.78;4976051;28;20310;-78
2021/12/05 05:53:50;;;;;;;;;;;;;;;2.02;82.42;99335.53;4951606;28;19923;-79
2021/12/05 05:56:18;;;;;;;;;;;;;;;1.88;82.88;99328.75;4958398;28;20120;-78
2021/12/05 05:58:49;;;;;;;;;;;;;;;1.87;83.05;99337.50;4985812;27;19912;-78
2021/12/05 06:03:20;;;;;;;;;;;;;;;1.83;83.03;99341.31;5004050;27;19904;-78
2021/12/05 06:04:00;;;;;;;;;;;;;;;1.80;83.63;99347.56;5000889;27;19949;-78
2021/12/05 06:06:25;;;;;;;;;;;;;;;1.84;83.68;99345.56;4988553;27;20092;-78
2021/12/05 06:08:50;;;;;;;;;;;;;;;1.92;83.94;99342.38;4998517;27;20129;-80
2021/12/05 06:11:16;;;;;;;;;;;;;;;1.93;84.25;99338.84;4987107;27;19943;-76
2021/12/05 06:13:41;;;;;;;;;;;;;;;2.00;84.29;99350.47;5006902;27;20304;-78
2021/12/05 06:16:07;;;;;;;;;;;;;;;1.99;84.22;99347.03;4993526;27;20124;-78
2021/12/05 06:18:32;;;;;;;;;;;;;;;2.10;84.31;99351.44;4997070;27;20693;-76
2021/12/05 06:20:57;;;;;;;;;;;;;;;2.11;84.27;99350.47;4977629;27;19908;-77
2021/12/05 06:23:23;;;;;;;;;;;;;;;2.15;84.16;99356.31;4989736;27;19915;-77
2021/12/05 06:25:49;;;;;;;;;;;;;;;2.20;83.81;99348.94;4994580;27;19903;-77
2021/12/05 06:28:15;;;;;;;;;;;;;;;2.20;83.66;99355.00;4971819;28;20037;-76
2021/12/05 06:46:34;;;;;;;;;;;;;;;2.21;82.65;99374.94;4972364;28;20351;-77
2021/12/05 06:48:59;;;;;;;;;;;;;;;2.29;82.88;99378.75;4964320;28;20321;-76
2021/12/05 06:51:25;;;;;;;;;;;;;;;2.30;82.61;99383.84;4964791;28;19971;-76
2021/12/05 06:53:50;;;;;;;;;;;;;;;2.32;82.78;99383.72;4975803;28;19922;-76
2021/12/05 06:56:16;;;;;;;;;;;;;;;2.35;82.47;99379.06;4971419;28;19903;-76
2021/12/05 06:58:41;;;;;;;;;;;;;;;2.37;82.53;99385.03;4973737;28;19918;-76
2021/12/05 07:01:08;;;;;;;;;;;;;;;2.46;82.52;99390.50;4978416;28;20325;-80
2021/12/05 07:03:34;;;;;;;;;;;;;;;2.44;81.86;99380.19;4972219;28;20751;-78
2021/12/05 07:06:09;;;;;;;;;;;;;;;2.39;82.02;99385.72;4971928;28;20808;-78
2021/12/05 07:08:37;;;;;;;;;;;;;;;2.38;81.98;99373.66;4972221;28;20185;-75
2021/12/05 07:16:25;;;;;;;;;;;;;;;2.53;80.63;99389.06;4954418;28;19903;-77
2021/12/05 07:21:42;;;;;;;;;;;;;;;2.61;81.03;99394.53;4961337;28;19937;-76
2021/12/05 07:43:08;;;;;;;;;;;;;;;2.92;79.23;99403.41;4965846;27;20000;-77
2021/12/05 07:45:37;;;;;;;;;;;;;;;2.99;79.25;99408.13;4935105;28;19916;-76
2021/12/05 07:48:10;;;;;;;;;;;;;;;2.98;79.17;99412.53;4948241;28;20402;-76
2021/12/05 07:50:45;;;;;;;;;;;;;;;3.03;78.91;99412.16;4942725;28;20921;-77
2021/12/05 07:53:18;;;;;;;;;;;;;;;3.09;78.98;99412.53;4950131;28;19908;-77
2021/12/05 07:55:46;;;;;;;;;;;;;;;3.13;78.25;99407.06;4940889;28;19908;-77
2021/12/05 07:58:51;;;;;;;;;;;;;;;3.21;77.97;99415.13;4954280;28;20193;-78
2021/12/05 08:14:42;;;;;;;;;;;;;;;3.38;78.14;99434.69;4951321;28;20401;-79
2021/12/05 08:17:14;;;;;;;;;;;;;;;3.36;77.72;99432.19;4957480;28;19907;-78
2021/12/05 08:19:39;;;;;;;;;;;;;;;3.60;77.14;99434.59;4962033;28;19935;-79
2021/12/05 08:22:04;;;;;;;;;;;;;;;3.56;77.28;99430.56;4933087;28;20195;-78
2021/12/05 08:24:32;;;;;;;;;;;;;;;3.58;78.01;99438.28;4930216;28;19953;-78
2021/12/05 08:26:57;;;;;;;;;;;;;;;3.62;77.47;99442.31;4935644;28;19900;-77
2021/12/05 08:29:32;;;;;;;;;;;;;;;3.75;76.51;99435.16;4952415;28;19913;-76
2021/12/05 08:32:29;;;;;;;;;;;;;;;3.78;76.68;99440.13;4934973;28;20498;-76
2021/12/05 08:42:28;;;;;;;;;;;;;;;3.76;76.45;99449.88;4985833;28;20214;-76
2021/12/05 09:23:09;;;;;;;;;;;;;;;4.17;75.41;99493.75;5003987;28;20106;-78
2021/12/05 09:26:05;;;;;;;;;;;;;;;4.16;74.45;99494.69;4984007;28;19912;-77
2021/12/05 10:06:57;;;;;;;;;;;;;;;4.67;74.06;99528.00;4977238;27;20301;-76
2021/12/05 10:14:42;;;;;;;;;;;;;;;4.85;74.35;99535.25;5005842;27;20210;-77
2021/12/05 10:36:07;;;;;;;;;;;;;;;4.91;74.08;99540.81;4974024;27;19918;-76
2021/12/05 10:38:39;;;;;;;;;;;;;;;5.03;74.70;99535.47;4980466;27;20027;-78
2021/12/05 10:42:11;;;;;;;;;;;;;;;5.07;74.33;99537.69;4963668;27;19960;-78
2021/12/05 10:43:52;;;;;;;;;;;;;;;5.10;74.32;99541.84;4972813;27;20554;-77
2021/12/05 10:46:18;;;;;;;;;;;;;;;5.13;74.07;99533.72;4971749;27;20008;-77
2021/12/05 10:48:48;;;;;;;;;;;;;;;5.07;74.96;99548.19;4978983;28;19914;-78
2021/12/05 10:51:14;;;;;;;;;;;;;;;5.10;75.09;99544.47;4964712;27;20626;-78
2021/12/05 10:53:39;;;;;;;;;;;;;;;5.08;75.12;99547.25;4993208;28;19916;-77
2021/12/05 10:56:12;;;;;;;;;;;;;;;5.12;75.63;99538.16;5002343;27;20143;-77
2021/12/05 10:58:40;;;;;;;;;;;;;;;5.05;74.80;99539.63;4907641;28;20022;-77
2021/12/05 11:01:15;;;;;;;;;;;;;;;5.12;74.56;99543.41;4942614;28;19915;-77
2021/12/05 11:03:40;;;;;;;;;;;;;;;5.13;75.15;99545.06;4990963;28;20319;-77
2021/12/05 11:06:19;;;;;;;;;;;;;;;5.19;74.97;99541.09;4945925;28;20408;-75
2021/12/05 11:08:44;;;;;;;;;;;;;;;5.08;74.80;99541.19;4952945;28;20152;-75
2021/12/05 11:11:09;;;;;;;;;;;;;;;5.21;74.51;99544.41;4979223;27;19922;-76
2021/12/05 11:13:35;;;;;;;;;;;;;;;5.18;75.34;99547.28;4976682;28;20309;-76
2021/12/05 11:16:00;;;;;;;;;;;;;;;5.38;75.18;99553.44;4989120;28;20260;-79
2021/12/05 11:18:52;;;;;;;;;;;;;;;5.35;75.25;99552.88;4993384;28;20177;-77
2021/12/05 11:21:46;;;;;;;;;;;;;;;5.22;74.37;99558.31;5005256;28;20259;-79
2021/12/05 11:24:22;;;;;;;;;;;;;;;5.23;75.95;99558.22;5005257;28;20167;-77
2021/12/05 11:27:07;;;;;;;;;;;;;;;5.41;73.54;99558.41;5011500;28;20196;-78
2021/12/05 11:29:48;;;;;;;;;;;;;;;5.41;74.45;99553.16;5007170;28;20172;-77
2021/12/05 11:32:15;;;;;;;;;;;;;;;5.39;73.48;99551.66;4999775;28;20684;-78
2021/12/05 11:34:40;;;;;;;;;;;;;;;5.36;73.74;99552.75;5002570;28;19916;-79
2021/12/05 11:37:05;;;;;;;;;;;;;;;5.41;73.59;99547.91;5003366;28;20265;-78
2021/12/05 11:39:30;;;;;;;;;;;;;;;5.52;73.64;99551.41;4981597;28;20256;-78
2021/12/05 11:41:56;;;;;;;;;;;;;;;5.58;72.87;99546.44;4997868;28;20382;-78
2021/12/05 11:44:22;;;;;;;;;;;;;;;5.66;72.96;99545.78;4979348;28;20279;-78
2021/12/05 11:46:47;;;;;;;;;;;;;;;5.61;72.69;99550.59;4969516;28;19916;-79
2021/12/05 11:49:15;;;;;;;;;;;;;;;5.67;72.61;99544.81;4962448;28;20301;-78
2021/12/05 11:51:41;;;;;;;;;;;;;;;5.61;72.32;99554.06;5002122;27;20416;-78
2021/12/05 11:54:09;;;;;;;;;;;;;;;5.62;73.19;99555.72;5023419;27;19915;-79
2021/12/05 11:56:34;;;;;;;;;;;;;;;5.60;72.88;99551.59;5025517;27;19907;-78
2021/12/05 11:59:11;;;;;;;;;;;;;;;5.63;72.06;99557.38;5020439;27;20839;-78
2021/12/05 12:01:44;;;;;;;;;;;;;;;5.52;72.70;99548.78;5044921;27;20109;-78
2021/12/05 12:04:10;;;;;;;;;;;;;;;5.53;71.92;99545.19;5022977;27;20889;-78
2021/12/05 12:06:35;;;;;;;;;;;;;;;5.52;71.90;99546.16;5025239;27;19903;-78
2021/12/05 12:09:01;;;;;;;;;;;;;;;5.59;72.22;99555.97;4998994;27;19911;-80
2021/12/05 12:11:26;;;;;;;;;;;;;;;5.53;71.71;99550.44;4985716;28;20306;-79
2021/12/05 12:13:51;;;;;;;;;;;;;;;5.41;70.95;99560.22;5002070;28;20250;-79
2021/12/05 12:16:17;;;;;;;;;;;;;;;5.47;71.47;99565.75;5012533;27;20128;-78
2021/12/05 12:18:45;;;;;;;;;;;;;;;5.48;71.16;99569.19;4988096;27;20169;-78
2021/12/05 12:21:19;;;;;;;;;;;;;;;5.52;72.04;99565.34;5004450;27;19911;-80
2021/12/05 12:23:44;;;;;;;;;;;;;;;5.60;71.94;99569.94;4984176;27;20243;-79
2021/12/05 12:26:09;;;;;;;;;;;;;;;5.56;71.68;99576.44;4985116;27;19953;-79
2021/12/05 12:28:35;;;;;;;;;;;;;;;5.67;72.44;99568.44;4988389;27;19918;-79
2021/12/05 12:31:02;;;;;;;;;;;;;;;5.67;72.13;99571.88;4996773;28;20401;-79
2021/12/05 12:33:28;;;;;;;;;;;;;;;5.67;73.00;99576.31;4984293;28;20151;-79
2021/12/05 12:35:53;;;;;;;;;;;;;;;5.62;71.53;99578.50;5003170;27;19939;-79
2021/12/05 12:38:18;;;;;;;;;;;;;;;5.59;70.90;99576.97;4990370;28;20506;-79
2021/12/05 12:40:45;;;;;;;;;;;;;;;5.58;71.28;99574.47;5010119;27;19911;-78
2021/12/05 12:43:29;;;;;;;;;;;;;;;5.63;71.24;99578.38;5011652;27;20275;-79
2021/12/05 12:45:54;;;;;;;;;;;;;;;5.66;71.49;99580.72;5016984;27;19964;-79
2021/12/05 12:48:22;;;;;;;;;;;;;;;5.74;71.88;99585.31;4993174;27;20049;-80
2021/12/05 12:50:51;;;;;;;;;;;;;;;5.74;71.82;99579.22;4976587;27;20171;-79
2021/12/05 12:53:23;;;;;;;;;;;;;;;5.75;70.32;99583.50;5001805;27;20285;-80
2021/12/05 12:55:51;;;;;;;;;;;;;;;5.78;70.31;99589.34;5003507;27;19931;-77
2021/12/05 12:58:36;;;;;;;;;;;;;;;5.86;70.72;99588.66;5009293;27;20306;-77
2021/12/05 13:01:15;;;;;;;;;;;;;;;6.00;70.35;99587.47;5014640;27;19995;-77
2021/12/05 13:04:27;;;;;;;;;;;;;;;6.08;69.53;99582.38;5052791;27;20120;-79
2021/12/05 13:12:31;;;;;;;;;;;;;;;6.34;70.00;99587.91;5026063;27;20244;-78
2021/12/05 13:15:06;;;;;;;;;;;;;;;6.30;70.17;99601.47;5002540;27;19981;-79
2021/12/05 13:17:36;;;;;;;;;;;;;;;6.32;69.62;99599.53;5037893;27;19914;-79
2021/12/05 13:20:01;;;;;;;;;;;;;;;6.24;70.34;99602.84;5003851;27;20138;-78
2021/12/05 13:22:26;;;;;;;;;;;;;;;6.29;68.79;99599.78;4998337;27;20452;-78
2021/12/05 13:24:56;;;;;;;;;;;;;;;6.25;68.39;99601.88;4992580;28;20204;-78
2021/12/05 13:27:25;;;;;;;;;;;;;;;6.24;68.74;99602.00;4996877;28;20365;-77
2021/12/05 13:29:51;;;;;;;;;;;;;;;6.27;69.54;99609.63;4996658;28;20727;-77
2021/12/05 13:32:24;;;;;;;;;;;;;;;6.27;69.28;99612.25;4975563;28;20185;-78
2021/12/05 13:34:50;;;;;;;;;;;;;;;6.31;68.92;99608.38;4976430;28;19912;-77
2021/12/05 13:37:16;;;;;;;;;;;;;;;6.20;68.96;99606.69;4973072;28;20222;-79
2021/12/05 13:39:47;;;;;;;;;;;;;;;6.21;68.89;99611.00;4986033;28;19908;-77
2021/12/05 13:42:12;;;;;;;;;;;;;;;6.19;68.90;99616.38;4989013;28;20238;-78
2021/12/05 13:44:56;;;;;;;;;;;;;;;6.24;68.96;99613.34;4985756;28;20329;-77
2021/12/05 13:47:27;;;;;;;;;;;;;;;6.17;68.83;99617.47;5023172;27;20309;-77
2021/12/05 13:49:52;;;;;;;;;;;;;;;6.09;69.45;99623.44;5010903;27;20224;-77
2021/12/05 13:52:31;;;;;;;;;;;;;;;6.11;69.35;99612.78;4995223;27;19932;-77
2021/12/05 13:55:20;;;;;;;;;;;;;;;6.13;70.15;99622.16;5032271;27;20061;-77
2021/12/05 13:58:04;;;;;;;;;;;;;;;6.11;70.33;99626.75;5027717;27;20669;-76
2021/12/05 14:00:59;;;;;;;;;;;;;;;6.06;70.71;99631.56;5029037;27;20234;-77
2021/12/05 14:03:44;;;;;;;;;;;;;;;6.03;68.98;99634.47;5010439;27;19909;-77
2021/12/05 14:06:23;;;;;;;;;;;;;;;6.03;70.17;99636.25;5031416;27;20245;-79
2021/12/05 14:08:48;;;;;;;;;;;;;;;6.07;70.79;99643.72;5007237;28;20610;-78
2021/12/05 14:11:14;;;;;;;;;;;;;;;6.11;71.12;99650.38;4996528;27;19911;-78
2021/12/05 14:13:39;;;;;;;;;;;;;;;6.12;71.13;99657.31;5002442;27;19952;-79
2021/12/05 14:16:04;;;;;;;;;;;;;;;6.05;70.14;99661.44;5008858;27;19916;-80
2021/12/05 14:18:29;;;;;;;;;;;;;;;6.02;70.28;99661.69;5015839;27;20226;-80
2021/12/05 14:20:55;;;;;;;;;;;;;;;5.84;71.11;99667.53;5025085;27;20583;-78
2021/12/05 14:23:20;;;;;;;;;;;;;;;5.78;70.76;99675.13;4971666;28;20331;-79
2021/12/05 14:25:47;;;;;;;;;;;;;;;5.81;70.69;99673.06;5020218;27;19907;-78
2021/12/05 14:28:12;;;;;;;;;;;;;;;5.83;71.38;99684.25;5010584;27;20137;-78
2021/12/05 14:30:38;;;;;;;;;;;;;;;5.84;71.41;99679.84;5010085;27;20222;-79
2021/12/05 14:33:03;;;;;;;;;;;;;;;5.84;71.12;99682.47;5012389;27;19927;-78
2021/12/05 14:35:30;;;;;;;;;;;;;;;5.83;70.94;99693.94;5020178;27;19908;-78
2021/12/05 14:37:55;;;;;;;;;;;;;;;5.82;71.07;99698.38;5025676;27;20385;-79
2021/12/05 14:40:22;;;;;;;;;;;;;;;5.80;71.93;99699.44;5004757;27;19916;-78
2021/12/05 14:42:49;;;;;;;;;;;;;;;5.74;71.61;99707.84;5004317;27;20143;-78
2021/12/05 14:45:15;;;;;;;;;;;;;;;5.72;71.67;99715.84;4992270;27;20082;-79
2021/12/05 14:47:41;;;;;;;;;;;;;;;5.71;71.33;99711.59;4997358;28;19920;-77
2021/12/05 14:50:13;;;;;;;;;;;;;;;5.67;71.78;99718.88;4988667;28;20084;-78
2021/12/05 14:52:39;;;;;;;;;;;;;;;5.62;71.36;99722.84;4972344;28;19924;-78
2021/12/05 14:55:05;;;;;;;;;;;;;;;5.68;72.05;99719.69;4975479;28;19905;-78
2021/12/05 14:57:32;;;;;;;;;;;;;;;5.67;72.24;99718.06;4975044;28;20292;-80
2021/12/05 15:00:08;;;;;;;;;;;;;;;5.69;72.82;99721.38;4973163;28;19982;-80
2021/12/05 15:02:34;;;;;;;;;;;;;;;5.68;72.71;99722.31;5016470;27;20228;-80
2021/12/05 15:04:59;;;;;;;;;;;;;;;5.64;71.96;99720.91;5013386;28;19907;-79
2021/12/05 15:07:25;;;;;;;;;;;;;;;5.57;72.45;99719.78;5001451;28;20092;-79
2021/12/05 15:09:53;;;;;;;;;;;;;;;5.61;72.53;99727.28;5016231;28;20121;-80
2021/12/05 15:12:23;;;;;;;;;;;;;;;5.64;72.43;99728.78;4994620;28;20782;-83
2021/12/05 15:14:49;;;;;;;;;;;;;;;5.65;72.09;99739.19;5013725;28;20333;-83
2021/12/05 15:17:41;;;;;;;;;;;;;;;5.68;71.76;99738.06;5028090;27;20265;-88
2021/12/05 15:20:09;;;;;;;;;;;;;;;5.67;72.16;99741.66;5010125;28;19911;-84
2021/12/05 15:22:34;;;;;;;;;;;;;;;5.67;72.14;99739.06;5030213;27;19976;-81
2021/12/05 15:25:01;;;;;;;;;;;;;;;5.69;72.51;99745.00;5006675;28;20305;-81
2021/12/05 15:27:27;;;;;;;;;;;;;;;5.65;72.07;99749.69;5011170;28;20033;-80
2021/12/05 15:29:56;;;;;;;;;;;;;;;5.61;72.08;99752.66;5006778;28;20234;-79
2021/12/05 15:32:23;;;;;;;;;;;;;;;5.56;72.20;99763.56;4986860;28;19920;-78
2021/12/05 15:34:49;;;;;;;;;;;;;;;5.55;72.64;99768.94;5008488;28;20403;-78
2021/12/05 15:37:14;;;;;;;;;;;;;;;5.53;73.50;99765.59;5009533;28;19947;-80
2021/12/05 15:39:42;;;;;;;;;;;;;;;5.46;73.19;99775.78;5013357;27;20369;-80
2021/12/05 15:42:23;;;;;;;;;;;;;;;5.46;73.40;99778.41;5000974;27;20641;-81
2021/12/05 15:44:49;;;;;;;;;;;;;;;5.45;73.24;99788.06;5045403;27;19908;-81
2021/12/05 15:47:15;;;;;;;;;;;;;;;5.39;73.23;99788.59;5033831;27;19908;-80
2021/12/05 15:50:04;;;;;;;;;;;;;;;5.35;72.99;99788.97;5020023;27;20000;-81
2021/12/05 15:52:38;;;;;;;;;;;;;;;5.36;73.41;99795.88;5030094;27;19968;-81
2021/12/05 15:55:05;;;;;;;;;;;;;;;5.31;73.27;99801.50;5032788;27;19915;-79
2021/12/05 15:57:32;;;;;;;;;;;;;;;5.35;73.57;99802.91;5013271;27;19960;-82
2021/12/05 15:59:58;;;;;;;;;;;;;;;5.38;73.62;99804.47;4997982;27;19900;-79
2021/12/05 16:02:24;;;;;;;;;;;;;;;5.30;74.00;99812.94;5013698;27;20213;-79
2021/12/05 16:04:49;;;;;;;;;;;;;;;5.36;73.88;99815.06;5011860;27;20234;-81
2021/12/05 16:07:15;;;;;;;;;;;;;;;5.31;73.35;99819.88;5018279;27;20636;-81
2021/12/05 16:09:41;;;;;;;;;;;;;;;5.30;73.96;99818.19;4998232;27;20012;-80
2021/12/05 16:12:09;;;;;;;;;;;;;;;5.31;73.50;99823.31;5015488;27;19987;-83
2021/12/05 16:14:36;;;;;;;;;;;;;;;5.27;73.57;99834.19;5038787;27;19908;-79
2021/12/05 16:17:03;;;;;;;;;;;;;;;5.29;73.30;99832.28;5019236;27;20272;-77
2021/12/05 16:19:30;;;;;;;;;;;;;;;5.21;73.72;99829.44;5012628;27;20244;-77
2021/12/05 16:21:55;;;;;;;;;;;;;;;5.28;73.63;99841.91;5008544;27;19963;-77
2021/12/05 16:24:21;;;;;;;;;;;;;;;5.33;73.87;99844.19;5012130;27;20020;-77
2021/12/05 16:26:47;;;;;;;;;;;;;;;5.26;72.80;99853.50;4992686;27;20217;-77
2021/12/05 16:29:15;;;;;;;;;;;;;;;5.25;73.63;99851.84;5012052;27;20008;-76
2021/12/05 16:31:41;;;;;;;;;;;;;;;5.21;73.09;99850.44;5030947;27;20913;-79
2021/12/05 16:34:14;;;;;;;;;;;;;;;5.16;73.21;99854.25;5033484;27;20182;-80
2021/12/05 16:36:39;;;;;;;;;;;;;;;5.17;73.56;99860.31;5027549;27;19911;-79
2021/12/05 16:39:06;;;;;;;;;;;;;;;5.25;73.87;99862.34;5019109;27;20100;-81
2021/12/05 16:41:33;;;;;;;;;;;;;;;5.23;72.93;99867.72;4992389;28;20656;-79
2021/12/05 16:44:07;;;;;;;;;;;;;;;5.24;72.73;99871.16;5003710;27;19920;-78
2021/12/05 16:46:33;;;;;;;;;;;;;;;5.20;73.35;99872.34;4977113;28;19916;-77
2021/12/05 16:49:00;;;;;;;;;;;;;;;5.19;73.71;99884.66;4972573;28;19981;-78
2021/12/05 16:51:26;;;;;;;;;;;;;;;5.16;73.68;99880.47;4974256;28;19916;-79
2021/12/05 16:53:57;;;;;;;;;;;;;;;5.14;73.99;99887.63;5007609;28;19914;-78
2021/12/05 16:56:33;;;;;;;;;;;;;;;5.06;74.11;99887.44;4995602;28;19989;-78
2021/12/05 16:59:19;;;;;;;;;;;;;;;5.10;73.60;99894.06;5006967;28;19900;-78
2021/12/05 17:01:45;;;;;;;;;;;;;;;5.06;74.06;99900.53;5013495;28;20422;-79
2021/12/05 17:04:11;;;;;;;;;;;;;;;5.05;75.30;99904.09;4995003;28;20179;-79
2021/12/05 17:07:05;;;;;;;;;;;;;;;5.06;75.42;99918.03;4970355;28;19908;-80
2021/12/05 17:09:32;;;;;;;;;;;;;;;5.10;75.63;99922.09;5000911;28;19961;-79
2021/12/05 17:11:58;;;;;;;;;;;;;;;5.06;74.81;99925.91;4999341;28;20016;-79
2021/12/05 17:14:24;;;;;;;;;;;;;;;5.08;75.65;99932.69;5001058;27;20356;-79
2021/12/05 17:16:49;;;;;;;;;;;;;;;5.15;76.68;99920.78;5023149;28;20351;-78
2021/12/05 17:19:16;;;;;;;;;;;;;;;5.10;77.35;99930.78;4997538;28;20151;-78
2021/12/05 17:21:49;;;;;;;;;;;;;;;5.10;78.92;99935.19;5008140;27;19948;-78
2021/12/05 17:24:14;;;;;;;;;;;;;;;5.03;79.33;99934.84;5006900;28;19908;-79
2021/12/05 17:26:41;;;;;;;;;;;;;;;5.01;79.70;99942.00;4996504;28;19968;-77
2021/12/05 17:29:06;;;;;;;;;;;;;;;5.08;80.14;99939.75;5009522;27;20010;-79
2021/12/05 17:31:37;;;;;;;;;;;;;;;5.04;79.46;99943.56;5018319;27;20223;-79
2021/12/05 17:34:09;;;;;;;;;;;;;;;4.98;79.77;99947.50;5009917;27;20361;-80
2021/12/05 17:36:35;;;;;;;;;;;;;;;4.98;80.17;99947.50;5009550;27;20349;-78
2021/12/05 17:39:03;;;;;;;;;;;;;;;4.97;79.64;99946.66;5008778;27;20380;-79
2021/12/05 17:41:29;;;;;;;;;;;;;;;4.89;80.51;99950.84;5020207;27;19941;-78
2021/12/05 17:43:55;;;;;;;;;;;;;;;4.84;80.65;99958.22;5000644;27;20785;-78
2021/12/05 17:46:20;;;;;;;;;;;;;;;4.89;80.80;99956.06;5020398;27;20066;-79
2021/12/05 17:48:46;;;;;;;;;;;;;;;4.90;79.61;99963.81;4981172;28;19908;-80
2021/12/05 17:51:11;;;;;;;;;;;;;;;4.90;79.13;99970.84;4963106;27;19911;-81
2021/12/05 17:53:38;;;;;;;;;;;;;;;4.84;78.72;99966.06;4966010;28;20195;-82
2021/12/05 17:56:14;;;;;;;;;;;;;;;4.86;78.34;99970.25;4959483;28;19904;-81
2021/12/05 18:03:52;;;;;;;;;;;;;;;4.87;78.73;99984.22;4994844;28;19979;-81
2021/12/05 18:06:18;;;;;;;;;;;;;;;4.88;77.68;99988.47;4992984;28;20016;-82
2021/12/05 18:08:43;;;;;;;;;;;;;;;4.92;77.69;99988.16;4998569;28;20887;-80
2021/12/05 18:11:12;;;;;;;;;;;;;;;4.87;77.48;99989.47;4991458;28;19920;-81
2021/12/05 18:13:39;;;;;;;;;;;;;;;4.89;77.55;99990.16;4992033;28;20506;-78
2021/12/05 18:16:12;;;;;;;;;;;;;;;4.91;77.73;99996.97;5003082;28;19952;-78
2021/12/05 18:18:37;;;;;;;;;;;;;;;4.86;77.44;100003.50;4994806;28;19992;-79
2021/12/05 18:21:04;;;;;;;;;;;;;;;4.80;76.92;100003.00;4977798;28;19912;-78
2021/12/05 18:23:29;;;;;;;;;;;;;;;4.84;76.73;100001.00;4992693;28;20708;-77
2021/12/05 18:25:54;;;;;;;;;;;;;;;4.81;76.74;100004.69;4977229;28;20393;-77
2021/12/05 18:28:20;;;;;;;;;;;;;;;4.77;77.60;100011.13;4994088;28;20189;-77
2021/12/05 18:30:46;;;;;;;;;;;;;;;4.82;76.87;100014.22;4971781;28;20326;-77
2021/12/05 18:33:11;;;;;;;;;;;;;;;4.81;77.12;100023.03;4984456;28;20380;-77